DW5812 Weather Reports


Display with metric or nautical units.
time (UTC)temp
F
wind
direction
speed
MPH
gust
MPH
rain 1hr
in
rain 24hr
in
rain mn
in
humidity
%
barometer
mb
20190221074545 79 358 10.0 17.0 0.00 0.03 0.03 82 1010.5
20190221074044 79 359 10.0 17.0 0.00 0.03 0.03 83 1010.5
20190221073544 79 1 11.0 17.0 0.00 0.03 0.03 84 1010.5
20190221073044 79 6 11.0 18.0 0.00 0.03 0.03 84 1010.5
20190221072544 79 5 12.0 20.0 0.00 0.03 0.03 84 1010.4
20190221072044 80 356 13.0 20.0 0.00 0.03 0.03 82 1010.5
20190221071545 81 352 14.0 19.0 0.00 0.03 0.03 82 1010.2
20190221071044 80 356 15.0 19.0 0.00 0.03 0.03 81 1010.3
20190221070543 80 358 14.0 20.0 0.00 0.03 0.03 81 1010.2
20190221070045 80 2 14.0 20.0 0.00 0.03 0.03 81 1010.1
20190221065544 80 356 15.0 24.0 0.00 0.03 0.03 81 1010.2
20190221065044 81 343 16.0 24.0 0.00 0.03 0.03 78 1010.0
20190221064545 82 345 15.0 21.0 0.00 0.03 0.03 79 1009.9
20190221064044 81 353 15.0 21.0 0.00 0.03 0.03 78 1009.9
20190221063544 81 355 14.0 21.0 0.00 0.03 0.03 76 1009.9
20190221063045 82 356 14.0 22.0 0.00 0.03 0.03 77 1009.9
20190221062544 82 356 15.0 22.0 0.00 0.03 0.03 76 1010.0
20190221062044 82 358 14.0 21.0 0.00 0.03 0.03 76 1009.9
20190221061545 82 6 11.0 20.0 0.00 0.03 0.03 74 1010.1
20190221061044 82 1 12.0 17.0 0.00 0.03 0.03 75 1010.0
20190221060544 82 350 13.0 20.0 0.00 0.03 0.03 77 1010.0
20190221060045 82 353 13.0 20.0 0.00 0.03 0.03 77 1010.1
20190221055544 82 12 13.0 22.0 0.00 0.03 0.03 76 1010.0
20190221055044 81 10 15.0 25.0 0.00 0.03 0.03 75 1010.1
20190221054545 81 358 16.0 25.0 0.00 0.03 0.03 75 1010.0
20190221054044 81 6 15.0 22.0 0.00 0.03 0.03 75 1010.0
20190221053544 82 3 16.0 23.0 0.00 0.03 0.03 73 1010.0
20190221053044 81 354 16.0 23.0 0.00 0.03 0.03 77 1009.9
20190221052544 82 356 17.0 25.0 0.00 0.03 0.03 75 1009.9
20190221052044 82 355 17.0 25.0 0.00 0.03 0.03 76 1009.8
20190221051545 82 349 18.0 26.0 0.00 0.03 0.03 75 1009.9
20190221051044 82 346 18.0 26.0 0.00 0.03 0.03 76 1010.0
20190221050544 82 353 15.0 22.0 0.00 0.03 0.03 75 1010.0
20190221050045 82 359 15.0 24.0 0.00 0.05 0.03 76 1010.3
20190221045544 82 355 16.0 24.0 0.00 0.05 0.03 74 1010.4
20190221045044 82 355 17.0 24.0 0.00 0.05 0.03 76 1010.5
20190221044544 82 1 16.0 24.0 0.00 0.05 0.03 75 1010.6
20190221044044 82 2 13.0 22.0 0.00 0.05 0.03 73 1010.6
20190221043544 82 358 15.0 20.0 0.00 0.05 0.03 74 1010.7
20190221043044 82 351 16.0 20.0 0.00 0.05 0.03 74 1010.7
20190221042544 82 359 14.0 20.0 0.00 0.05 0.03 75 1010.7
20190221042044 82 8 14.0 20.0 0.00 0.05 0.03 75 1010.8
20190221041544 82 353 15.0 22.0 0.01 0.05 0.03 73 1010.9
20190221041044 82 344 15.0 22.0 0.01 0.05 0.03 75 1010.9
20190221040544 82 352 15.0 23.0 0.01 0.05 0.03 76 1011.0
20190221040045 82 1 15.0 23.0 0.01 0.05 0.03 76 1011.1
20190221035544 82 351 15.0 21.0 0.01 0.05 0.03 74 1011.1
20190221035044 82 349 17.0 25.0 0.01 0.05 0.03 77 1011.2
20190221034545 81 354 18.0 25.0 0.01 0.05 0.03 78 1011.3
20190221034044 81 354 16.0 22.0 0.01 0.05 0.03 81 1011.3
20190221033544 80 1 13.0 22.0 0.01 0.05 0.03 81 1011.4
20190221033045 79 8 13.0 22.0 0.01 0.05 0.03 84 1011.4
20190221032544 79 5 15.0 24.0 0.01 0.05 0.03 84 1011.5
20190221032044 81 1 18.0 24.0 0.00 0.04 0.02 79 1011.6
20190221031545 82 356 17.0 23.0 0.00 0.04 0.02 75 1011.5
20190221031044 82 354 17.0 22.0 0.00 0.04 0.02 76 1011.5
20190221030544 82 352 18.0 27.0 0.00 0.04 0.02 75 1011.6
20190221030045 82 347 17.0 27.0 0.00 0.05 0.02 74 1011.6
20190221025545 82 348 16.0 22.0 0.00 0.05 0.02 76 1011.7
20190221025043 82 352 17.0 23.0 0.00 0.05 0.02 76 1011.9
20190221024545 82 355 18.0 26.0 0.00 0.05 0.02 75 1011.9
20190221024044 82 359 19.0 26.0 0.00 0.06 0.02 75 1011.9
20190221023544 81 1 18.0 26.0 0.00 0.09 0.02 77 1011.9
20190221023045 82 1 15.0 22.0 0.00 0.14 0.02 75 1011.9
20190221022544 82 356 15.0 23.0 0.00 0.14 0.02 77 1012.0
20190221022044 82 356 18.0 24.0 0.00 0.14 0.02 76 1012.0
20190221021545 81 351 19.0 24.0 0.00 0.14 0.02 75 1012.1
20190221021044 81 342 19.0 27.0 0.00 0.14 0.02 77 1012.1
20190221020544 81 341 19.0 27.0 0.00 0.14 0.02 76 1012.2
20190221020045 81 345 17.0 24.0 0.00 0.14 0.02 77 1012.2
20190221015544 82 351 16.0 23.0 0.00 0.14 0.02 77 1012.1
20190221015044 81 354 18.0 26.0 0.00 0.14 0.02 77 1012.2
20190221014545 81 354 19.0 26.0 0.00 0.14 0.02 77 1012.3
20190221014044 81 350 17.0 26.0 0.00 0.14 0.02 77 1012.3
20190221013544 82 352 16.0 26.0 0.00 0.14 0.02 78 1012.2
20190221013044 82 359 17.0 25.0 0.00 0.14 0.02 76 1012.5
20190221012544 81 1 18.0 25.0 0.00 0.14 0.02 76 1012.6
20190221012044 82 357 16.0 25.0 0.00 0.14 0.02 74 1012.5
20190221011544 82 2 14.0 21.0 0.00 0.14 0.02 75 1012.7
20190221011044 82 10 14.0 26.0 0.00 0.14 0.02 73 1012.9
20190221010545 82 4 17.0 27.0 0.00 0.14 0.02 74 1012.9
20190221010044 81 358 19.0 27.0 0.00 0.14 0.02 73 1012.9
20190221005544 81 357 15.0 25.0 0.00 0.14 0.02 77 1013.0
20190221005044 82 4 12.0 23.0 0.00 0.14 0.02 76 1013.1
20190221004544 82 10 12.0 22.0 0.00 0.14 0.02 75 1013.3
20190221004044 81 5 13.0 21.0 0.00 0.14 0.02 76 1013.3
20190221003545 81 5 16.0 24.0 0.00 0.14 0.02 76 1013.4
20190221003045 81 2 14.0 25.0 0.00 0.14 0.02 75 1013.4
20190221002544 81 5 11.0 25.0 0.00 0.14 0.02 76 1013.5
20190221002045 82 19 10.0 19.0 0.00 0.14 0.02 77 1013.5
20190221001545 81 15 11.0 19.0 0.00 0.14 0.02 78 1013.6
20190221001044 80 1 14.0 24.0 0.00 0.14 0.02 80 1013.6
20190221000544 80 356 14.0 24.0 0.00 0.14 0.02 80 1013.6
20190221000045 80 359 13.0 20.0 0.00 0.14 0.02 80 1013.7
20190220235544 80 358 13.0 20.0 0.00 0.14 0.02 80 1013.7
20190220235044 80 6 11.0 20.0 0.00 0.14 0.02 80 1013.7
20190220234544 80 6 13.0 23.0 0.00 0.14 0.02 79 1013.7
20190220234044 80 359 15.0 23.0 0.00 0.14 0.02 80 1013.6
20190220233544 80 6 12.0 21.0 0.00 0.14 0.02 80 1013.5
20190220233045 80 20 10.0 20.0 0.00 0.14 0.02 79 1013.5
20190220232544 80 10 12.0 18.0 0.00 0.14 0.02 80 1013.6
20190220232044 80 1 11.0 18.0 0.00 0.14 0.02 80 1013.5
20190220231545 80 9 10.0 18.0 0.00 0.14 0.02 81 1013.5
20190220231045 80 8 8.0 18.0 0.00 0.14 0.02 81 1013.5
20190220230545 80 2 8.0 14.0 0.00 0.14 0.02 82 1013.5
20190220230045 80 6 9.0 14.0 0.00 0.14 0.02 82 1013.5
20190220225544 80 5 9.0 16.0 0.00 0.14 0.02 82 1013.4
20190220225045 79 3 9.0 16.0 0.00 0.14 0.02 83 1013.3
20190220224545 79 6 8.0 16.0 0.00 0.14 0.02 83 1013.3
20190220224044 79 10 8.0 14.0 0.00 0.14 0.02 84 1013.3
20190220223544 79 17 8.0 14.0 0.00 0.14 0.02 84 1013.2
20190220223045 79 14 8.0 13.0 0.00 0.14 0.02 85 1013.3
20190220222544 78 17 7.0 12.0 0.00 0.14 0.02 86 1013.2
20190220222044 78 42 5.0 12.0 0.00 0.14 0.02 86 1013.2
20190220221545 78 57 5.0 12.0 0.00 0.14 0.02 86 1013.2
20190220221044 78 55 4.0 10.0 0.00 0.14 0.02 86 1013.2
20190220220544 78 52 5.0 10.0 0.00 0.14 0.02 86 1013.2
20190220220046 78 65 5.0 14.0 0.00 0.14 0.02 86 1013.1
20190220215544 78 39 5.0 14.0 0.00 0.14 0.02 86 1013.1
20190220215044 78 23 6.0 12.0 0.00 0.14 0.02 86 1013.1
20190220214544 78 42 5.0 12.0 0.00 0.14 0.02 85 1013.1
20190220214044 78 44 4.0 10.0 0.00 0.14 0.02 86 1013.1
20190220213544 77 44 4.0 7.0 0.00 0.14 0.02 87 1013.0
20190220213045 77 48 4.0 8.0 0.00 0.14 0.02 87 1012.9
20190220212544 77 61 4.0 9.0 0.01 0.14 0.02 87 1012.9
20190220212044 77 62 4.0 9.0 0.01 0.14 0.02 88 1013.0
20190220211545 77 55 4.0 9.0 0.01 0.14 0.02 88 1012.9
20190220211044 76 23 4.0 7.0 0.01 0.14 0.02 88 1012.8
20190220210545 76 19 4.0 8.0 0.01 0.14 0.02 88 1012.7
20190220210045 76 25 4.0 9.0 0.01 0.14 0.02 88 1012.6
20190220205545 76 18 5.0 9.0 0.01 0.14 0.02 88 1012.6
20190220205044 76 26 6.0 9.0 0.01 0.14 0.02 88 1012.6
20190220204545 76 42 7.0 10.0 0.01 0.15 0.02 88 1012.5
20190220204045 76 51 8.0 15.0 0.01 0.16 0.02 88 1012.5
20190220203544 76 65 8.0 15.0 0.02 0.16 0.02 88 1012.4
20190220203045 76 47 7.0 14.0 0.02 0.17 0.02 89 1012.5
20190220202545 76 12 4.0 14.0 0.01 0.19 0.01 90 1012.5
20190220202044 76 26 4.0 10.0 0.01 0.20 0.01 90 1012.3
20190220201545 76 35 5.0 10.0 0.01 0.20 0.01 90 1012.2
20190220201044 76 31 5.0 10.0 0.01 0.20 0.01 90 1012.2
20190220200544 76 29 5.0 10.0 0.01 0.20 0.01 90 1012.1
20190220200046 76 33 4.0 7.0 0.01 0.20 0.01 90 1012.1
20190220195545 76 30 3.0 7.0 0.01 0.20 0.01 90 1012.1
20190220195044 76 12 4.0 9.0 0.01 0.20 0.01 89 1012.1
20190220194545 76 4 8.0 15.0 0.01 0.20 0.01 89 1012.0
20190220194044 77 3 10.0 15.0 0.01 0.20 0.01 88 1012.0
20190220193544 77 6 7.0 14.0 0.00 0.19 0.00 86 1012.0
20190220193044 77 21 5.0 12.0 0.00 0.19 0.00 87 1011.9
20190220192544 77 32 5.0 10.0 0.00 0.19 0.00 87 1011.8
20190220192044 77 42 5.0 10.0 0.00 0.19 0.00 87 1011.7
20190220191545 77 45 6.0 12.0 0.00 0.20 0.00 87 1011.6
20190220191044 77 32 6.0 12.0 0.00 0.20 0.00 87 1011.6
20190220190544 77 22 6.0 12.0 0.00 0.20 0.00 87 1011.6
20190220190045 77 35 6.0 12.0 0.00 0.20 0.00 87 1011.6
20190220185544 77 49 5.0 10.0 0.00 0.20 0.00 88 1011.6
20190220185045 77 27 5.0 10.0 0.00 0.20 0.00 88 1011.6
20190220184545 77 8 6.0 11.0 0.00 0.20 0.00 87 1011.6
20190220184044 77 24 7.0 14.0 0.00 0.20 0.00 87 1011.6
20190220183544 77 19 7.0 16.0 0.00 0.20 0.00 87 1011.6
20190220183045 78 18 7.0 16.0 0.00 0.20 0.00 85 1011.6
20190220182544 78 44 7.0 13.0 0.00 0.20 0.00 84 1011.6
20190220182044 78 58 7.0 14.0 0.00 0.20 0.00 84 1011.5
20190220181545 78 63 7.0 14.0 0.00 0.20 0.00 83 1011.5
20190220181045 78 55 6.0 13.0 0.00 0.20 0.00 83 1011.5
20190220180544 78 58 7.0 13.0 0.00 0.20 0.00 83 1011.6
20190220180045 78 69 7.0 16.0 0.00 0.20 0.00 83 1011.6
20190220175544 78 75 8.0 16.0 0.00 0.20 0.00 83 1011.7
20190220175047 78 69 7.0 15.0 0.00 0.20 0.00 83 1011.8
20190220174545 78 54 6.0 12.0 0.00 0.20 0.00 84 1011.8
20190220174044 78 47 5.0 11.0 0.00 0.20 0.00 84 1011.8
20190220173544 78 43 4.0 10.0 0.00 0.20 0.00 85 1011.9
20190220173045 78 55 5.0 10.0 0.00 0.20 0.00 84 1011.9
20190220172553 78 67 6.0 11.0 0.00 0.20 0.00 84 1011.9
20190220172044 78 63 7.0 12.0 0.00 0.21 0.00 84 1011.9
20190220171545 78 57 7.0 14.0 0.00 0.21 0.00 84 1012.0
20190220171044 78 56 7.0 15.0 0.00 0.21 0.00 84 1012.2
20190220170544 78 61 7.0 15.0 0.00 0.21 0.00 85 1012.2
20190220170045 78 57 8.0 13.0 0.00 0.21 0.00 85 1012.2
20190220165544 78 52 8.0 13.0 0.00 0.21 0.00 85 1012.1
20190220165044 78 58 7.0 12.0 0.00 0.21 0.00 85 1012.2
20190220164545 78 62 7.0 14.0 0.00 0.21 0.00 86 1012.2
20190220164044 78 54 6.0 14.0 0.00 0.21 0.00 86 1012.2
20190220163544 78 43 6.0 12.0 0.00 0.21 0.00 87 1012.3
20190220163045 78 41 6.0 12.0 0.00 0.21 0.00 87 1012.4
20190220162544 78 55 6.0 11.0 0.00 0.21 0.00 86 1012.5
20190220162044 78 67 6.0 11.0 0.00 0.21 0.00 85 1012.5
20190220161544 78 73 6.0 11.0 0.00 0.21 0.00 85 1012.5
20190220161044 78 62 6.0 12.0 0.00 0.21 0.00 85 1012.6
20190220160544 78 48 5.0 13.0 0.00 0.21 0.00 85 1012.6
20190220160045 78 45 4.0 13.0 0.00 0.21 0.00 85 1012.7
20190220155544 78 59 4.0 8.0 0.00 0.21 0.00 85 1012.8
20190220155045 78 56 4.0 10.0 0.00 0.21 0.00 85 1012.8
20190220154545 78 46 4.0 10.0 0.00 0.21 0.00 85 1012.9
20190220154045 78 60 5.0 10.0 0.00 0.21 0.00 85 1013.0
20190220153544 78 61 6.0 12.0 0.00 0.21 0.00 85 1013.0
20190220153045 78 59 6.0 12.0 0.00 0.21 0.00 85 1013.0
20190220152544 78 55 5.0 12.0 0.00 0.21 0.00 85 1013.0
20190220152045 78 44 4.0 12.0 0.00 0.21 0.00 85 1013.1
20190220151545 78 38 5.0 12.0 0.00 0.21 0.00 85 1013.1
20190220151044 78 22 6.0 14.0 0.00 0.21 0.00 86 1013.2
20190220150545 78 12 6.0 14.0 0.00 0.21 0.00 86 1013.2
20190220150045 78 15 6.0 14.0 0.00 0.21 0.00 87 1013.2
20190220145544 78 26 5.0 11.0 0.00 0.21 0.00 87 1013.3
20190220145045 78 35 5.0 12.0 0.00 0.21 0.00 86 1013.3
20190220144545 78 26 5.0 12.0 0.00 0.21 0.00 86 1013.4
20190220144044 78 20 5.0 9.0 0.00 0.21 0.00 85 1013.5
20190220143545 78 26 5.0 14.0 0.00 0.21 0.00 85 1013.5
20190220143045 78 39 6.0 14.0 0.00 0.21 0.00 85 1013.6
20190220142545 78 46 6.0 12.0 0.00 0.21 0.00 85 1013.5
20190220142044 78 35 6.0 13.0 0.00 0.21 0.00 85 1013.6
20190220141545 78 39 7.0 13.0 0.00 0.21 0.00 84 1013.6
20190220141045 78 40 6.0 12.0 0.00 0.21 0.00 84 1013.7
20190220140545 78 20 6.0 11.0 0.00 0.21 0.00 85 1013.7
20190220140046 78 8 7.0 13.0 0.00 0.21 0.00 84 1013.7
20190220135544 78 5 8.0 15.0 0.00 0.21 0.21 84 1013.8
20190220135044 78 20 7.0 15.0 0.00 0.21 0.21 83 1013.8
20190220134545 78 35 6.0 13.0 0.00 0.21 0.21 83 1014.0
20190220134044 78 21 7.0 15.0 0.00 0.21 0.21 84 1014.0
20190220133544 79 24 8.0 15.0 0.00 0.21 0.21 84 1014.0
20190220133045 79 25 7.0 13.0 0.00 0.21 0.21 84 1014.1
20190220132544 79 8 7.0 13.0 0.00 0.21 0.21 83 1014.1
20190220132044 79 8 7.0 14.0 0.00 0.21 0.21 83 1014.1
20190220131545 79 20 7.0 16.0 0.00 0.21 0.21 82 1014.1
20190220131044 79 12 8.0 16.0 0.00 0.21 0.21 82 1014.2
20190220130545 79 1 8.0 14.0 0.00 0.21 0.21 82 1014.2
20190220130045 79 4 8.0 14.0 0.00 0.21 0.21 82 1014.2
20190220125544 79 12 7.0 14.0 0.00 0.21 0.21 83 1014.3
20190220125045 79 6 6.0 12.0 0.00 0.21 0.21 83 1014.4
20190220124545 79 1 5.0 10.0 0.00 0.21 0.21 83 1014.4
20190220124044 79 13 6.0 15.0 0.00 0.21 0.21 83 1014.4
20190220123545 79 13 8.0 15.0 0.00 0.21 0.21 82 1014.4
20190220123045 79 10 9.0 15.0 0.00 0.21 0.21 82 1014.5
20190220122544 79 8 8.0 13.0 0.00 0.21 0.21 83 1014.5
20190220122044 79 21 7.0 15.0 0.00 0.21 0.21 82 1014.5
20190220121545 79 21 7.0 15.0 0.00 0.21 0.21 82 1014.6
20190220121044 79 15 7.0 14.0 0.00 0.21 0.21 82 1014.6
20190220120544 79 13 8.0 14.0 0.00 0.21 0.21 82 1014.7
20190220120046 79 2 7.0 14.0 0.00 0.21 0.21 83 1014.6
20190220115544 79 5 7.0 14.0 0.00 0.21 0.21 83 1014.6
20190220115044 79 9 8.0 14.0 0.00 0.21 0.21 83 1014.6
20190220114545 79 7 8.0 14.0 0.00 0.21 0.21 83 1014.6
20190220114045 79 3 9.0 17.0 0.00 0.21 0.21 84 1014.6
20190220113544 79 1 9.0 17.0 0.00 0.21 0.21 83 1014.5
20190220113045 79 7 7.0 13.0 0.00 0.21 0.21 83 1014.6
20190220112544 79 12 7.0 12.0 0.00 0.21 0.21 83 1014.6
20190220112045 79 4 7.0 12.0 0.00 0.21 0.21 83 1014.5
20190220111545 79 353 7.0 14.0 0.00 0.21 0.21 84 1014.5
20190220111045 79 349 8.0 14.0 0.00 0.21 0.21 84 1014.4
20190220110545 79 356 9.0 14.0 0.00 0.21 0.21 83 1014.4
20190220110045 79 1 8.0 14.0 0.00 0.21 0.21 83 1014.2
20190220105545 79 1 7.0 12.0 0.00 0.21 0.21 83 1014.2
20190220105045 79 3 8.0 12.0 0.00 0.21 0.21 82 1014.2
20190220104545 79 4 9.0 14.0 0.00 0.21 0.21 82 1014.2
20190220104045 79 8 9.0 15.0 0.00 0.21 0.21 81 1014.2
20190220103546 79 13 7.0 15.0 0.00 0.21 0.21 81 1014.2
20190220103045 79 10 8.0 14.0 0.00 0.21 0.21 81 1014.1
20190220102544 79 8 9.0 15.0 0.00 0.21 0.21 80 1014.1
20190220102045 79 5 8.0 15.0 0.00 0.21 0.21 80 1014.1
20190220101545 79 357 8.0 13.0 0.00 0.21 0.21 81 1014.1
20190220101045 79 357 9.0 14.0 0.00 0.21 0.21 81 1014.1
20190220100545 79 4 10.0 16.0 0.00 0.21 0.21 80 1014.1
20190220100045 79 1 11.0 16.0 0.00 0.21 0.21 80 1014.1
20190220095545 79 6 10.0 15.0 0.00 0.21 0.21 80 1014.1
20190220095044 79 14 7.0 15.0 0.00 0.21 0.21 80 1014.0
20190220094546 79 8 8.0 16.0 0.00 0.21 0.21 81 1014.0
20190220094045 79 8 9.0 16.0 0.00 0.21 0.21 81 1014.0
20190220093544 79 5 10.0 15.0 0.00 0.21 0.21 81 1013.8
20190220093045 79 2 10.0 19.0 0.00 0.21 0.21 80 1013.9
20190220092545 79 3 10.0 19.0 0.00 0.21 0.21 80 1013.8
20190220092045 79 4 10.0 17.0 0.00 0.21 0.21 81 1013.7
20190220091545 79 2 11.0 19.0 0.00 0.21 0.21 81 1013.6
20190220091045 79 359 11.0 19.0 0.00 0.21 0.21 81 1013.6
20190220090545 79 359 12.0 19.0 0.00 0.21 0.21 81 1013.5
20190220090045 79 2 12.0 19.0 0.00 0.21 0.21 82 1013.3
20190220085544 79 1 13.0 18.0 0.00 0.21 0.21 82 1013.3
20190220085045 79 359 13.0 18.0 0.00 0.21 0.21 82 1013.3
20190220084545 79 1 12.0 18.0 0.00 0.21 0.21 82 1013.3
20190220084044 79 1 14.0 22.0 0.00 0.21 0.21 82 1013.2
20190220083544 80 356 15.0 22.0 0.00 0.21 0.21 82 1013.0
20190220083045 80 350 12.0 20.0 0.00 0.21 0.21 82 1013.0
20190220082544 80 349 11.0 19.0 0.00 0.21 0.21 82 1012.9
20190220082045 80 350 12.0 18.0 0.00 0.21 0.21 82 1012.9
20190220081545 80 355 14.0 21.0 0.00 0.21 0.21 82 1012.9
20190220081044 80 355 14.0 21.0 0.00 0.21 0.21 81 1012.8
20190220080545 80 349 12.0 18.0 0.00 0.21 0.21 82 1012.8
20190220080045 80 352 12.0 18.0 0.00 0.21 0.21 82 1012.7
20190220075544 80 357 12.0 18.0 0.00 0.21 0.21 82 1012.7
20190220075045 80 358 15.0 22.0 0.00 0.21 0.21 81 1012.7